sensor_id;sensor_type;location;lat;lon;timestamp;temperature;humidity
19037;DHT22;9651;49.138;8.900;2024-02-26T00:02:33;7.80;99.90
19037;DHT22;9651;49.138;8.900;2024-02-26T00:06:38;7.80;99.90
19037;DHT22;9651;49.138;8.900;2024-02-26T00:10:41;7.80;99.90
19037;DHT22;9651;49.138;8.900;2024-02-26T00:14:45;7.80;99.90
19037;DHT22;9651;49.138;8.900;2024-02-26T00:18:48;7.70;99.90
19037;DHT22;9651;49.138;8.900;2024-02-26T00:22:50;7.70;99.90
19037;DHT22;9651;49.138;8.900;2024-02-26T00:26:52;7.80;99.90
19037;DHT22;9651;49.138;8.900;2024-02-26T00:30:56;7.80;99.90
19037;DHT22;9651;49.138;8.900;2024-02-26T00:34:58;7.80;99.90
19037;DHT22;9651;49.138;8.900;2024-02-26T00:39:00;7.80;99.90
19037;DHT22;9651;49.138;8.900;2024-02-26T00:43:02;7.70;99.90
19037;DHT22;9651;49.138;8.900;2024-02-26T00:47:05;7.70;99.90
19037;DHT22;9651;49.138;8.900;2024-02-26T00:51:07;7.70;99.90
19037;DHT22;9651;49.138;8.900;2024-02-26T00:55:09;7.70;99.90
19037;DHT22;9651;49.138;8.900;2024-02-26T00:59:11;7.70;99.90
19037;DHT22;9651;49.138;8.900;2024-02-26T01:03:15;7.70;99.90
19037;DHT22;9651;49.138;8.900;2024-02-26T01:07:17;7.70;99.90
19037;DHT22;9651;49.138;8.900;2024-02-26T01:11:18;7.70;99.90
19037;DHT22;9651;49.138;8.900;2024-02-26T01:15:20;7.70;99.90
19037;DHT22;9651;49.138;8.900;2024-02-26T01:19:25;7.70;99.90
19037;DHT22;9651;49.138;8.900;2024-02-26T01:23:27;7.80;99.90
19037;DHT22;9651;49.138;8.900;2024-02-26T01:27:29;7.70;99.90
19037;DHT22;9651;49.138;8.900;2024-02-26T01:31:31;7.70;99.90
19037;DHT22;9651;49.138;8.900;2024-02-26T01:35:34;7.60;99.90
19037;DHT22;9651;49.138;8.900;2024-02-26T01:39:36;7.60;99.90
19037;DHT22;9651;49.138;8.900;2024-02-26T01:43:38;7.70;99.90
19037;DHT22;9651;49.138;8.900;2024-02-26T01:47:40;7.70;99.90
19037;DHT22;9651;49.138;8.900;2024-02-26T01:51:43;7.70;99.90
19037;DHT22;9651;49.138;8.900;2024-02-26T01:55:46;7.70;99.90
19037;DHT22;9651;49.138;8.900;2024-02-26T01:59:48;7.70;99.90
19037;DHT22;9651;49.138;8.900;2024-02-26T02:03:50;7.70;99.90
19037;DHT22;9651;49.138;8.900;2024-02-26T02:07:53;7.80;99.90
19037;DHT22;9651;49.138;8.900;2024-02-26T02:11:56;7.80;99.90
19037;DHT22;9651;49.138;8.900;2024-02-26T02:15:58;7.80;99.90
19037;DHT22;9651;49.138;8.900;2024-02-26T02:20:00;7.80;99.90
19037;DHT22;9651;49.138;8.900;2024-02-26T02:24:04;7.80;99.90
19037;DHT22;9651;49.138;8.900;2024-02-26T02:28:06;7.80;99.90
19037;DHT22;9651;49.138;8.900;2024-02-26T02:32:08;7.80;99.90
19037;DHT22;9651;49.138;8.900;2024-02-26T02:36:10;7.80;99.90
19037;DHT22;9651;49.138;8.900;2024-02-26T02:40:14;7.80;99.90
19037;DHT22;9651;49.138;8.900;2024-02-26T02:44:16;7.80;99.90
19037;DHT22;9651;49.138;8.900;2024-02-26T02:48:18;7.80;99.90
19037;DHT22;9651;49.138;8.900;2024-02-26T02:52:20;7.80;99.90
19037;DHT22;9651;49.138;8.900;2024-02-26T02:56:23;7.90;99.90
19037;DHT22;9651;49.138;8.900;2024-02-26T03:00:25;7.90;99.90
19037;DHT22;9651;49.138;8.900;2024-02-26T03:04:26;7.90;99.90
19037;DHT22;9651;49.138;8.900;2024-02-26T03:08:29;7.90;99.90
19037;DHT22;9651;49.138;8.900;2024-02-26T03:12:34;7.90;99.90
19037;DHT22;9651;49.138;8.900;2024-02-26T03:16:36;7.90;99.90
19037;DHT22;9651;49.138;8.900;2024-02-26T03:20:37;8.00;99.90
19037;DHT22;9651;49.138;8.900;2024-02-26T03:24:39;8.00;99.90
19037;DHT22;9651;49.138;8.900;2024-02-26T03:28:43;8.00;99.90
19037;DHT22;9651;49.138;8.900;2024-02-26T03:32:44;8.00;99.90
19037;DHT22;9651;49.138;8.900;2024-02-26T03:36:47;8.00;99.90
19037;DHT22;9651;49.138;8.900;2024-02-26T03:40:49;8.00;99.90
19037;DHT22;9651;49.138;8.900;2024-02-26T03:44:52;7.90;99.90
19037;DHT22;9651;49.138;8.900;2024-02-26T03:48:54;7.90;99.90
19037;DHT22;9651;49.138;8.900;2024-02-26T03:52:56;7.90;99.90
19037;DHT22;9651;49.138;8.900;2024-02-26T03:56:58;7.80;99.90
19037;DHT22;9651;49.138;8.900;2024-02-26T04:01:01;7.90;99.90
19037;DHT22;9651;49.138;8.900;2024-02-26T04:05:04;7.80;99.90
19037;DHT22;9651;49.138;8.900;2024-02-26T04:09:06;7.90;99.90
19037;DHT22;9651;49.138;8.900;2024-02-26T04:13:10;7.90;99.90
19037;DHT22;9651;49.138;8.900;2024-02-26T04:17:13;7.90;99.90
19037;DHT22;9651;49.138;8.900;2024-02-26T04:21:15;7.90;99.90
19037;DHT22;9651;49.138;8.900;2024-02-26T04:25:17;7.80;99.90
19037;DHT22;9651;49.138;8.900;2024-02-26T04:29:18;7.80;99.90
19037;DHT22;9651;49.138;8.900;2024-02-26T04:33:25;7.80;99.90
19037;DHT22;9651;49.138;8.900;2024-02-26T04:37:27;7.80;99.90
19037;DHT22;9651;49.138;8.900;2024-02-26T04:41:31;7.80;99.90
19037;DHT22;9651;49.138;8.900;2024-02-26T04:45:33;7.70;99.90
19037;DHT22;9651;49.138;8.900;2024-02-26T04:49:36;7.70;99.90
19037;DHT22;9651;49.138;8.900;2024-02-26T04:53:38;7.80;99.90
19037;DHT22;9651;49.138;8.900;2024-02-26T04:57:40;7.70;99.90
19037;DHT22;9651;49.138;8.900;2024-02-26T05:01:41;7.70;99.90
19037;DHT22;9651;49.138;8.900;2024-02-26T05:05:45;7.60;99.90
19037;DHT22;9651;49.138;8.900;2024-02-26T05:09:47;7.50;99.90
19037;DHT22;9651;49.138;8.900;2024-02-26T05:13:50;7.40;99.90
19037;DHT22;9651;49.138;8.900;2024-02-26T05:17:52;7.30;99.90
19037;DHT22;9651;49.138;8.900;2024-02-26T05:21:55;7.20;99.90
19037;DHT22;9651;49.138;8.900;2024-02-26T05:25:57;7.10;99.90
19037;DHT22;9651;49.138;8.900;2024-02-26T05:29:59;7.10;99.90
19037;DHT22;9651;49.138;8.900;2024-02-26T05:34:01;7.00;99.90
19037;DHT22;9651;49.138;8.900;2024-02-26T05:38:04;7.00;99.90
19037;DHT22;9651;49.138;8.900;2024-02-26T05:42:06;7.00;99.90
19037;DHT22;9651;49.138;8.900;2024-02-26T05:46:09;6.90;99.90
19037;DHT22;9651;49.138;8.900;2024-02-26T05:50:11;6.90;99.90
19037;DHT22;9651;49.138;8.900;2024-02-26T05:54:17;6.70;99.90
19037;DHT22;9651;49.138;8.900;2024-02-26T05:58:19;6.70;99.90
19037;DHT22;9651;49.138;8.900;2024-02-26T06:02:20;6.70;99.90
19037;DHT22;9651;49.138;8.900;2024-02-26T06:06:22;6.80;99.90
19037;DHT22;9651;49.138;8.900;2024-02-26T06:10:25;6.80;99.90
19037;DHT22;9651;49.138;8.900;2024-02-26T06:14:27;6.80;99.90
19037;DHT22;9651;49.138;8.900;2024-02-26T06:18:29;6.90;99.90
19037;DHT22;9651;49.138;8.900;2024-02-26T06:22:31;6.90;99.90
19037;DHT22;9651;49.138;8.900;2024-02-26T06:26:34;6.90;99.90
19037;DHT22;9651;49.138;8.900;2024-02-26T06:30:36;6.90;99.90
19037;DHT22;9651;49.138;8.900;2024-02-26T06:34:38;6.90;99.90
19037;DHT22;9651;49.138;8.900;2024-02-26T06:38:41;6.90;99.90
19037;DHT22;9651;49.138;8.900;2024-02-26T06:42:44;7.00;99.90
19037;DHT22;9651;49.138;8.900;2024-02-26T06:46:46;7.00;99.90
19037;DHT22;9651;49.138;8.900;2024-02-26T06:50:48;7.00;99.90
19037;DHT22;9651;49.138;8.900;2024-02-26T06:54:50;7.20;99.90
19037;DHT22;9651;49.138;8.900;2024-02-26T06:58:54;7.20;99.90
19037;DHT22;9651;49.138;8.900;2024-02-26T07:02:56;7.20;99.90
19037;DHT22;9651;49.138;8.900;2024-02-26T07:06:58;7.20;99.90
19037;DHT22;9651;49.138;8.900;2024-02-26T07:11:00;7.20;99.90
19037;DHT22;9651;49.138;8.900;2024-02-26T07:15:05;7.20;99.90
19037;DHT22;9651;49.138;8.900;2024-02-26T07:19:08;7.20;99.90
19037;DHT22;9651;49.138;8.900;2024-02-26T07:23:10;7.20;99.90
19037;DHT22;9651;49.138;8.900;2024-02-26T07:27:13;7.30;99.90
19037;DHT22;9651;49.138;8.900;2024-02-26T07:31:19;7.40;99.90
19037;DHT22;9651;49.138;8.900;2024-02-26T07:35:21;7.40;99.90
19037;DHT22;9651;49.138;8.900;2024-02-26T07:39:23;7.50;99.90
19037;DHT22;9651;49.138;8.900;2024-02-26T07:43:24;7.50;99.90
19037;DHT22;9651;49.138;8.900;2024-02-26T07:47:28;7.70;99.90
19037;DHT22;9651;49.138;8.900;2024-02-26T07:51:30;7.80;99.90
19037;DHT22;9651;49.138;8.900;2024-02-26T07:55:32;7.80;99.90
19037;DHT22;9651;49.138;8.900;2024-02-26T07:59:34;7.80;99.90
19037;DHT22;9651;49.138;8.900;2024-02-26T08:03:38;7.90;99.90
19037;DHT22;9651;49.138;8.900;2024-02-26T08:07:40;8.40;99.90
19037;DHT22;9651;49.138;8.900;2024-02-26T08:11:42;8.90;99.90
19037;DHT22;9651;49.138;8.900;2024-02-26T08:15:44;8.90;99.90
19037;DHT22;9651;49.138;8.900;2024-02-26T08:19:47;8.80;99.90
19037;DHT22;9651;49.138;8.900;2024-02-26T08:23:49;8.70;99.90
19037;DHT22;9651;49.138;8.900;2024-02-26T08:27:51;8.70;99.90
19037;DHT22;9651;49.138;8.900;2024-02-26T08:31:52;8.70;99.90
19037;DHT22;9651;49.138;8.900;2024-02-26T08:35:56;8.60;99.90
19037;DHT22;9651;49.138;8.900;2024-02-26T08:39:59;8.50;99.90
19037;DHT22;9651;49.138;8.900;2024-02-26T08:44:00;8.50;99.90
19037;DHT22;9651;49.138;8.900;2024-02-26T08:48:03;8.50;99.90
19037;DHT22;9651;49.138;8.900;2024-02-26T08:52:08;8.40;99.90
19037;DHT22;9651;49.138;8.900;2024-02-26T08:56:10;8.10;99.90
19037;DHT22;9651;49.138;8.900;2024-02-26T09:00:17;8.10;99.90
19037;DHT22;9651;49.138;8.900;2024-02-26T09:04:21;8.10;99.90
19037;DHT22;9651;49.138;8.900;2024-02-26T09:08:24;8.20;99.90
19037;DHT22;9651;49.138;8.900;2024-02-26T09:12:26;8.30;99.90
19037;DHT22;9651;49.138;8.900;2024-02-26T09:16:27;8.30;99.90
19037;DHT22;9651;49.138;8.900;2024-02-26T09:20:29;8.50;99.90
19037;DHT22;9651;49.138;8.900;2024-02-26T09:24:32;9.10;99.90
19037;DHT22;9651;49.138;8.900;2024-02-26T09:28:34;9.30;99.90
19037;DHT22;9651;49.138;8.900;2024-02-26T09:32:38;9.50;99.90
19037;DHT22;9651;49.138;8.900;2024-02-26T09:36:40;9.70;99.90
19037;DHT22;9651;49.138;8.900;2024-02-26T09:40:43;9.40;99.90
19037;DHT22;9651;49.138;8.900;2024-02-26T09:44:46;9.50;99.90
19037;DHT22;9651;49.138;8.900;2024-02-26T09:48:50;9.80;99.90
19037;DHT22;9651;49.138;8.900;2024-02-26T09:52:52;10.00;99.90
19037;DHT22;9651;49.138;8.900;2024-02-26T09:57:00;10.00;99.90
19037;DHT22;9651;49.138;8.900;2024-02-26T10:01:03;9.90;99.90
19037;DHT22;9651;49.138;8.900;2024-02-26T10:05:10;9.90;99.90
19037;DHT22;9651;49.138;8.900;2024-02-26T10:09:14;9.90;99.90
19037;DHT22;9651;49.138;8.900;2024-02-26T10:13:18;10.00;99.90
19037;DHT22;9651;49.138;8.900;2024-02-26T10:17:21;10.20;99.90
19037;DHT22;9651;49.138;8.900;2024-02-26T10:21:23;10.50;99.90
19037;DHT22;9651;49.138;8.900;2024-02-26T10:25:25;10.70;99.90
19037;DHT22;9651;49.138;8.900;2024-02-26T10:29:28;10.80;99.90
19037;DHT22;9651;49.138;8.900;2024-02-26T10:33:32;10.60;99.90
19037;DHT22;9651;49.138;8.900;2024-02-26T10:37:34;10.70;99.90
19037;DHT22;9651;49.138;8.900;2024-02-26T10:41:36;10.80;99.90
19037;DHT22;9651;49.138;8.900;2024-02-26T10:45:40;11.00;99.90
19037;DHT22;9651;49.138;8.900;2024-02-26T10:49:46;11.10;99.90
19037;DHT22;9651;49.138;8.900;2024-02-26T10:53:51;11.10;99.90
19037;DHT22;9651;49.138;8.900;2024-02-26T10:57:57;11.30;99.90
19037;DHT22;9651;49.138;8.900;2024-02-26T11:02:00;11.70;99.90
19037;DHT22;9651;49.138;8.900;2024-02-26T11:06:04;12.30;99.90
19037;DHT22;9651;49.138;8.900;2024-02-26T11:10:07;13.50;99.90
19037;DHT22;9651;49.138;8.900;2024-02-26T11:14:09;14.00;99.90
19037;DHT22;9651;49.138;8.900;2024-02-26T11:18:14;15.10;99.90
19037;DHT22;9651;49.138;8.900;2024-02-26T11:22:16;15.10;99.90
19037;DHT22;9651;49.138;8.900;2024-02-26T11:26:18;15.20;99.90
19037;DHT22;9651;49.138;8.900;2024-02-26T11:30:21;15.90;99.90
19037;DHT22;9651;49.138;8.900;2024-02-26T11:34:25;17.20;99.90
19037;DHT22;9651;49.138;8.900;2024-02-26T11:38:27;18.50;99.90
19037;DHT22;9651;49.138;8.900;2024-02-26T11:42:29;19.40;99.90
19037;DHT22;9651;49.138;8.900;2024-02-26T11:46:32;18.90;99.90
19037;DHT22;9651;49.138;8.900;2024-02-26T11:50:36;19.10;99.90
19037;DHT22;9651;49.138;8.900;2024-02-26T11:54:44;18.90;99.90
19037;DHT22;9651;49.138;8.900;2024-02-26T11:58:46;19.00;99.90
19037;DHT22;9651;49.138;8.900;2024-02-26T12:02:50;19.30;99.90
19037;DHT22;9651;49.138;8.900;2024-02-26T12:07:01;20.20;99.90
19037;DHT22;9651;49.138;8.900;2024-02-26T12:11:04;21.20;99.90
19037;DHT22;9651;49.138;8.900;2024-02-26T12:15:17;20.40;99.90
19037;DHT22;9651;49.138;8.900;2024-02-26T12:19:21;20.90;99.90
19037;DHT22;9651;49.138;8.900;2024-02-26T12:23:25;21.90;99.90
19037;DHT22;9651;49.138;8.900;2024-02-26T12:27:27;23.60;99.90
19037;DHT22;9651;49.138;8.900;2024-02-26T12:31:29;23.60;99.90
19037;DHT22;9651;49.138;8.900;2024-02-26T12:35:31;23.00;99.90
19037;DHT22;9651;49.138;8.900;2024-02-26T12:39:35;22.10;99.90
19037;DHT22;9651;49.138;8.900;2024-02-26T12:43:37;20.60;99.90
19037;DHT22;9651;49.138;8.900;2024-02-26T12:47:40;19.00;99.90
19037;DHT22;9651;49.138;8.900;2024-02-26T12:51:43;18.20;99.90
19037;DHT22;9651;49.138;8.900;2024-02-26T12:55:46;17.70;99.90
19037;DHT22;9651;49.138;8.900;2024-02-26T12:59:48;17.20;99.90
19037;DHT22;9651;49.138;8.900;2024-02-26T13:03:51;17.10;99.90
19037;DHT22;9651;49.138;8.900;2024-02-26T13:07:54;16.90;99.90
19037;DHT22;9651;49.138;8.900;2024-02-26T13:11:58;16.70;99.90
19037;DHT22;9651;49.138;8.900;2024-02-26T13:16:03;16.40;99.90
19037;DHT22;9651;49.138;8.900;2024-02-26T13:20:08;16.10;99.90
19037;DHT22;9651;49.138;8.900;2024-02-26T13:24:13;15.90;99.90
19037;DHT22;9651;49.138;8.900;2024-02-26T13:28:17;15.70;99.90
19037;DHT22;9651;49.138;8.900;2024-02-26T13:32:21;15.50;99.90
19037;DHT22;9651;49.138;8.900;2024-02-26T13:36:23;15.40;99.90
19037;DHT22;9651;49.138;8.900;2024-02-26T13:40:25;15.30;99.90
19037;DHT22;9651;49.138;8.900;2024-02-26T13:44:28;15.20;99.90
19037;DHT22;9651;49.138;8.900;2024-02-26T13:48:30;15.30;99.90
19037;DHT22;9651;49.138;8.900;2024-02-26T13:52:32;15.30;99.90
19037;DHT22;9651;49.138;8.900;2024-02-26T13:56:35;15.30;99.90
19037;DHT22;9651;49.138;8.900;2024-02-26T14:00:38;15.30;99.90
19037;DHT22;9651;49.138;8.900;2024-02-26T14:04:42;15.20;99.90
19037;DHT22;9651;49.138;8.900;2024-02-26T14:08:43;15.20;99.90
19037;DHT22;9651;49.138;8.900;2024-02-26T14:12:45;15.20;99.90
19037;DHT22;9651;49.138;8.900;2024-02-26T14:16:48;15.30;99.90
19037;DHT22;9651;49.138;8.900;2024-02-26T14:20:50;15.30;99.90
19037;DHT22;9651;49.138;8.900;2024-02-26T14:24:52;15.50;99.90
19037;DHT22;9651;49.138;8.900;2024-02-26T14:28:54;15.40;99.90
19037;DHT22;9651;49.138;8.900;2024-02-26T14:32:57;15.40;99.90
19037;DHT22;9651;49.138;8.900;2024-02-26T14:36:59;15.60;99.90
19037;DHT22;9651;49.138;8.900;2024-02-26T14:41:01;15.60;99.90
19037;DHT22;9651;49.138;8.900;2024-02-26T14:45:04;15.40;99.90
19037;DHT22;9651;49.138;8.900;2024-02-26T14:49:10;15.30;99.90
19037;DHT22;9651;49.138;8.900;2024-02-26T14:53:12;15.10;99.90
19037;DHT22;9651;49.138;8.900;2024-02-26T14:57:14;14.80;99.90
19037;DHT22;9651;49.138;8.900;2024-02-26T15:01:16;14.70;99.90
19037;DHT22;9651;49.138;8.900;2024-02-26T15:05:19;14.50;99.90
19037;DHT22;9651;49.138;8.900;2024-02-26T15:09:21;14.50;99.90
19037;DHT22;9651;49.138;8.900;2024-02-26T15:13:23;14.30;99.90
19037;DHT22;9651;49.138;8.900;2024-02-26T15:17:27;14.30;99.90
19037;DHT22;9651;49.138;8.900;2024-02-26T15:21:30;14.30;99.90
19037;DHT22;9651;49.138;8.900;2024-02-26T15:25:32;14.40;99.90
19037;DHT22;9651;49.138;8.900;2024-02-26T15:29:34;14.40;99.90
19037;DHT22;9651;49.138;8.900;2024-02-26T15:33:36;14.30;99.90
19037;DHT22;9651;49.138;8.900;2024-02-26T15:37:40;14.20;99.90
19037;DHT22;9651;49.138;8.900;2024-02-26T15:41:42;14.20;99.90
19037;DHT22;9651;49.138;8.900;2024-02-26T15:45:44;14.10;99.90
19037;DHT22;9651;49.138;8.900;2024-02-26T15:49:46;14.00;99.90
19037;DHT22;9651;49.138;8.900;2024-02-26T15:53:49;14.10;99.90
19037;DHT22;9651;49.138;8.900;2024-02-26T15:57:51;14.10;99.90
19037;DHT22;9651;49.138;8.900;2024-02-26T16:01:53;14.10;99.90
19037;DHT22;9651;49.138;8.900;2024-02-26T16:05:55;14.00;99.90
19037;DHT22;9651;49.138;8.900;2024-02-26T16:09:58;14.00;99.90
19037;DHT22;9651;49.138;8.900;2024-02-26T16:14:07;13.90;99.90
19037;DHT22;9651;49.138;8.900;2024-02-26T16:18:11;13.80;99.90
19037;DHT22;9651;49.138;8.900;2024-02-26T16:22:13;13.70;99.90
19037;DHT22;9651;49.138;8.900;2024-02-26T16:26:16;13.50;99.90
19037;DHT22;9651;49.138;8.900;2024-02-26T16:30:18;13.30;99.90
19037;DHT22;9651;49.138;8.900;2024-02-26T16:34:20;13.20;99.90
19037;DHT22;9651;49.138;8.900;2024-02-26T16:38:22;13.10;99.90
19037;DHT22;9651;49.138;8.900;2024-02-26T16:42:25;13.10;99.90
19037;DHT22;9651;49.138;8.900;2024-02-26T16:46:27;13.00;99.90
19037;DHT22;9651;49.138;8.900;2024-02-26T16:50:29;12.90;99.90
19037;DHT22;9651;49.138;8.900;2024-02-26T16:54:31;12.80;99.90
19037;DHT22;9651;49.138;8.900;2024-02-26T16:58:34;12.80;99.90
19037;DHT22;9651;49.138;8.900;2024-02-26T17:02:36;12.70;99.90
19037;DHT22;9651;49.138;8.900;2024-02-26T17:06:38;12.70;99.90
19037;DHT22;9651;49.138;8.900;2024-02-26T17:10:40;12.60;99.90
19037;DHT22;9651;49.138;8.900;2024-02-26T17:14:44;12.60;99.90
19037;DHT22;9651;49.138;8.900;2024-02-26T17:18:48;12.50;99.90
19037;DHT22;9651;49.138;8.900;2024-02-26T17:22:50;12.40;99.90
19037;DHT22;9651;49.138;8.900;2024-02-26T17:26:52;12.30;99.90
19037;DHT22;9651;49.138;8.900;2024-02-26T17:30:55;12.10;99.90
19037;DHT22;9651;49.138;8.900;2024-02-26T17:34:57;12.10;99.90
19037;DHT22;9651;49.138;8.900;2024-02-26T17:38:59;12.00;99.90
19037;DHT22;9651;49.138;8.900;2024-02-26T17:43:01;11.90;99.90
19037;DHT22;9651;49.138;8.900;2024-02-26T17:47:06;11.90;99.90
19037;DHT22;9651;49.138;8.900;2024-02-26T17:51:08;11.80;99.90
19037;DHT22;9651;49.138;8.900;2024-02-26T17:55:12;11.70;99.90
19037;DHT22;9651;49.138;8.900;2024-02-26T17:59:14;11.70;99.90
19037;DHT22;9651;49.138;8.900;2024-02-26T18:03:17;11.60;99.90
19037;DHT22;9651;49.138;8.900;2024-02-26T18:07:19;11.60;99.90
19037;DHT22;9651;49.138;8.900;2024-02-26T18:11:21;11.50;99.90
19037;DHT22;9651;49.138;8.900;2024-02-26T18:15:23;11.50;99.90
19037;DHT22;9651;49.138;8.900;2024-02-26T18:19:26;11.40;99.90
19037;DHT22;9651;49.138;8.900;2024-02-26T18:23:28;11.40;99.90
19037;DHT22;9651;49.138;8.900;2024-02-26T18:27:30;11.30;99.90
19037;DHT22;9651;49.138;8.900;2024-02-26T18:31:34;11.30;99.90
19037;DHT22;9651;49.138;8.900;2024-02-26T18:35:37;11.30;99.90
19037;DHT22;9651;49.138;8.900;2024-02-26T18:39:40;11.30;99.90
19037;DHT22;9651;49.138;8.900;2024-02-26T18:43:42;11.20;99.90
19037;DHT22;9651;49.138;8.900;2024-02-26T18:47:44;11.10;99.90
19037;DHT22;9651;49.138;8.900;2024-02-26T18:51:47;11.10;99.90
19037;DHT22;9651;49.138;8.900;2024-02-26T18:55:49;11.20;99.90
19037;DHT22;9651;49.138;8.900;2024-02-26T18:59:51;11.10;99.90
19037;DHT22;9651;49.138;8.900;2024-02-26T19:03:53;11.10;99.90
19037;DHT22;9651;49.138;8.900;2024-02-26T19:07:56;11.10;99.90
19037;DHT22;9651;49.138;8.900;2024-02-26T19:12:01;11.10;99.90
19037;DHT22;9651;49.138;8.900;2024-02-26T19:16:04;10.90;99.90
19037;DHT22;9651;49.138;8.900;2024-02-26T19:20:07;10.90;99.90
19037;DHT22;9651;49.138;8.900;2024-02-26T19:24:10;10.90;99.90
19037;DHT22;9651;49.138;8.900;2024-02-26T19:28:13;10.90;99.90
19037;DHT22;9651;49.138;8.900;2024-02-26T19:32:16;10.90;99.90
19037;DHT22;9651;49.138;8.900;2024-02-26T19:36:18;10.80;99.90
19037;DHT22;9651;49.138;8.900;2024-02-26T19:40:21;10.80;99.90
19037;DHT22;9651;49.138;8.900;2024-02-26T19:44:23;10.70;99.90
19037;DHT22;9651;49.138;8.900;2024-02-26T19:48:25;10.70;99.90
19037;DHT22;9651;49.138;8.900;2024-02-26T19:52:27;10.70;99.90
19037;DHT22;9651;49.138;8.900;2024-02-26T19:56:30;10.70;99.90
19037;DHT22;9651;49.138;8.900;2024-02-26T20:00:34;10.70;99.90
19037;DHT22;9651;49.138;8.900;2024-02-26T20:04:36;10.60;99.90
19037;DHT22;9651;49.138;8.900;2024-02-26T20:08:38;10.60;99.90
19037;DHT22;9651;49.138;8.900;2024-02-26T20:12:41;10.50;99.90
19037;DHT22;9651;49.138;8.900;2024-02-26T20:16:43;10.50;99.90
19037;DHT22;9651;49.138;8.900;2024-02-26T20:20:45;10.50;99.90
19037;DHT22;9651;49.138;8.900;2024-02-26T20:24:47;10.40;99.90
19037;DHT22;9651;49.138;8.900;2024-02-26T20:28:50;10.40;99.90
19037;DHT22;9651;49.138;8.900;2024-02-26T20:32:52;10.40;99.90
19037;DHT22;9651;49.138;8.900;2024-02-26T20:36:54;10.40;99.90
19037;DHT22;9651;49.138;8.900;2024-02-26T20:40:57;10.30;99.90
19037;DHT22;9651;49.138;8.900;2024-02-26T20:45:00;10.30;99.90
19037;DHT22;9651;49.138;8.900;2024-02-26T20:49:02;10.30;99.90
19037;DHT22;9651;49.138;8.900;2024-02-26T20:53:05;10.20;99.90
19037;DHT22;9651;49.138;8.900;2024-02-26T20:57:07;10.20;99.90
19037;DHT22;9651;49.138;8.900;2024-02-26T21:01:11;10.20;99.90
19037;DHT22;9651;49.138;8.900;2024-02-26T21:05:13;10.20;99.90
19037;DHT22;9651;49.138;8.900;2024-02-26T21:09:15;10.10;99.90
19037;DHT22;9651;49.138;8.900;2024-02-26T21:13:18;10.10;99.90
19037;DHT22;9651;49.138;8.900;2024-02-26T21:17:22;10.10;99.90
19037;DHT22;9651;49.138;8.900;2024-02-26T21:21:24;10.10;99.90
19037;DHT22;9651;49.138;8.900;2024-02-26T21:25:26;10.00;99.90
19037;DHT22;9651;49.138;8.900;2024-02-26T21:29:28;10.00;99.90
19037;DHT22;9651;49.138;8.900;2024-02-26T21:33:31;10.00;99.90
19037;DHT22;9651;49.138;8.900;2024-02-26T21:37:33;10.00;99.90
19037;DHT22;9651;49.138;8.900;2024-02-26T21:41:35;10.00;99.90
19037;DHT22;9651;49.138;8.900;2024-02-26T21:45:37;10.00;99.90
19037;DHT22;9651;49.138;8.900;2024-02-26T21:49:42;10.00;99.90
19037;DHT22;9651;49.138;8.900;2024-02-26T21:53:44;10.00;99.90
19037;DHT22;9651;49.138;8.900;2024-02-26T21:57:46;10.00;99.90
19037;DHT22;9651;49.138;8.900;2024-02-26T22:01:47;9.90;99.90
19037;DHT22;9651;49.138;8.900;2024-02-26T22:05:51;9.90;99.90
19037;DHT22;9651;49.138;8.900;2024-02-26T22:09:54;9.90;99.90
19037;DHT22;9651;49.138;8.900;2024-02-26T22:13:56;9.90;99.90
19037;DHT22;9651;49.138;8.900;2024-02-26T22:17:59;9.90;99.90
19037;DHT22;9651;49.138;8.900;2024-02-26T22:22:04;9.90;99.90
19037;DHT22;9651;49.138;8.900;2024-02-26T22:26:06;9.90;99.90
19037;DHT22;9651;49.138;8.900;2024-02-26T22:30:10;9.80;99.90
19037;DHT22;9651;49.138;8.900;2024-02-26T22:34:12;9.80;99.90
19037;DHT22;9651;49.138;8.900;2024-02-26T22:38:15;9.80;99.90
19037;DHT22;9651;49.138;8.900;2024-02-26T22:42:17;9.70;99.90
19037;DHT22;9651;49.138;8.900;2024-02-26T22:46:19;9.70;99.90
19037;DHT22;9651;49.138;8.900;2024-02-26T22:50:21;9.70;99.90
19037;DHT22;9651;49.138;8.900;2024-02-26T22:54:24;9.70;99.90
19037;DHT22;9651;49.138;8.900;2024-02-26T22:58:27;9.60;99.90
19037;DHT22;9651;49.138;8.900;2024-02-26T23:02:28;9.70;99.90
19037;DHT22;9651;49.138;8.900;2024-02-26T23:06:30;9.70;99.90
19037;DHT22;9651;49.138;8.900;2024-02-26T23:10:34;9.60;99.90
19037;DHT22;9651;49.138;8.900;2024-02-26T23:14:36;9.60;99.90
19037;DHT22;9651;49.138;8.900;2024-02-26T23:18:38;9.60;99.90
19037;DHT22;9651;49.138;8.900;2024-02-26T23:22:42;9.60;99.90
19037;DHT22;9651;49.138;8.900;2024-02-26T23:26:45;9.50;99.90
19037;DHT22;9651;49.138;8.900;2024-02-26T23:30:47;9.50;99.90
19037;DHT22;9651;49.138;8.900;2024-02-26T23:34:49;9.50;99.90
19037;DHT22;9651;49.138;8.900;2024-02-26T23:38:51;9.50;99.90
19037;DHT22;9651;49.138;8.900;2024-02-26T23:42:56;9.50;99.90
19037;DHT22;9651;49.138;8.900;2024-02-26T23:46:57;9.50;99.90
19037;DHT22;9651;49.138;8.900;2024-02-26T23:50:59;9.40;99.90
19037;DHT22;9651;49.138;8.900;2024-02-26T23:55:01;9.40;99.90
19037;DHT22;9651;49.138;8.900;2024-02-26T23:59:04;9.40;99.90
